sensor_id;sensor_type;location;lat;lon;timestamp;temperature;humidity
14985;DHT22;7588;62.368;25.902;2022-12-18T00:01:05;-2.90;99.90
14985;DHT22;7588;62.368;25.902;2022-12-18T00:03:35;-2.80;99.90
14985;DHT22;7588;62.368;25.902;2022-12-18T00:06:02;-2.80;99.90
14985;DHT22;7588;62.368;25.902;2022-12-18T00:08:28;-2.80;99.90
14985;DHT22;7588;62.368;25.902;2022-12-18T00:10:54;-2.80;99.90
14985;DHT22;7588;62.368;25.902;2022-12-18T00:13:20;-2.90;99.90
14985;DHT22;7588;62.368;25.902;2022-12-18T00:15:46;-2.90;99.90
14985;DHT22;7588;62.368;25.902;2022-12-18T00:18:11;-2.90;99.90
14985;DHT22;7588;62.368;25.902;2022-12-18T00:20:39;-2.90;99.90
14985;DHT22;7588;62.368;25.902;2022-12-18T00:23:06;-2.90;99.90
14985;DHT22;7588;62.368;25.902;2022-12-18T00:25:35;-2.80;99.90
14985;DHT22;7588;62.368;25.902;2022-12-18T00:28:02;-2.90;99.90
14985;DHT22;7588;62.368;25.902;2022-12-18T00:30:28;-2.90;99.90
14985;DHT22;7588;62.368;25.902;2022-12-18T00:32:54;-2.90;99.90
14985;DHT22;7588;62.368;25.902;2022-12-18T00:35:21;-2.80;99.90
14985;DHT22;7588;62.368;25.902;2022-12-18T00:37:47;-2.90;99.90
14985;DHT22;7588;62.368;25.902;2022-12-18T00:40:13;-2.80;99.90
14985;DHT22;7588;62.368;25.902;2022-12-18T00:42:38;-2.90;99.90
14985;DHT22;7588;62.368;25.902;2022-12-18T00:45:30;-2.80;99.90
14985;DHT22;7588;62.368;25.902;2022-12-18T00:47:56;-2.90;99.90
14985;DHT22;7588;62.368;25.902;2022-12-18T00:50:24;-2.90;99.90
14985;DHT22;7588;62.368;25.902;2022-12-18T00:52:50;-2.90;99.90
14985;DHT22;7588;62.368;25.902;2022-12-18T00:55:17;-2.80;99.90
14985;DHT22;7588;62.368;25.902;2022-12-18T00:57:43;-2.90;99.90
14985;DHT22;7588;62.368;25.902;2022-12-18T01:00:12;-2.80;99.90
14985;DHT22;7588;62.368;25.902;2022-12-18T01:02:38;-2.90;99.90
14985;DHT22;7588;62.368;25.902;2022-12-18T01:05:04;-2.90;99.90
14985;DHT22;7588;62.368;25.902;2022-12-18T01:07:30;-2.90;99.90
14985;DHT22;7588;62.368;25.902;2022-12-18T01:09:56;-2.90;99.90
14985;DHT22;7588;62.368;25.902;2022-12-18T01:12:22;-2.90;99.90
14985;DHT22;7588;62.368;25.902;2022-12-18T01:14:47;-2.90;99.90
14985;DHT22;7588;62.368;25.902;2022-12-18T01:17:13;-2.90;99.90
14985;DHT22;7588;62.368;25.902;2022-12-18T01:19:40;-2.90;99.90
14985;DHT22;7588;62.368;25.902;2022-12-18T01:22:06;-2.90;99.90
14985;DHT22;7588;62.368;25.902;2022-12-18T01:24:31;-2.80;99.90
14985;DHT22;7588;62.368;25.902;2022-12-18T01:26:57;-2.90;99.90
14985;DHT22;7588;62.368;25.902;2022-12-18T01:29:23;-2.90;99.90
14985;DHT22;7588;62.368;25.902;2022-12-18T01:31:49;-2.90;99.90
14985;DHT22;7588;62.368;25.902;2022-12-18T01:34:15;-2.90;99.90
14985;DHT22;7588;62.368;25.902;2022-12-18T01:36:40;-2.90;99.90
14985;DHT22;7588;62.368;25.902;2022-12-18T01:39:10;-2.90;99.90
14985;DHT22;7588;62.368;25.902;2022-12-18T01:41:36;-2.80;99.90
14985;DHT22;7588;62.368;25.902;2022-12-18T01:44:57;-2.90;99.90
14985;DHT22;7588;62.368;25.902;2022-12-18T01:47:41;-2.80;99.90
14985;DHT22;7588;62.368;25.902;2022-12-18T01:52:56;-2.90;99.90
14985;DHT22;7588;62.368;25.902;2022-12-18T01:55:25;-2.90;99.90
14985;DHT22;7588;62.368;25.902;2022-12-18T01:57:57;-2.90;99.90
14985;DHT22;7588;62.368;25.902;2022-12-18T02:00:25;-2.90;99.90
14985;DHT22;7588;62.368;25.902;2022-12-18T02:02:52;-2.90;99.90
14985;DHT22;7588;62.368;25.902;2022-12-18T02:11:15;-2.80;99.90
14985;DHT22;7588;62.368;25.902;2022-12-18T02:13:58;-2.80;99.90
14985;DHT22;7588;62.368;25.902;2022-12-18T02:27:38;-2.80;99.90
14985;DHT22;7588;62.368;25.902;2022-12-18T02:30:05;-2.80;99.90
14985;DHT22;7588;62.368;25.902;2022-12-18T02:32:36;-2.70;99.90
14985;DHT22;7588;62.368;25.902;2022-12-18T02:35:06;-2.80;99.90
14985;DHT22;7588;62.368;25.902;2022-12-18T02:37:34;-2.80;99.90
14985;DHT22;7588;62.368;25.902;2022-12-18T02:40:04;-2.80;99.90
14985;DHT22;7588;62.368;25.902;2022-12-18T02:42:30;-2.80;99.90
14985;DHT22;7588;62.368;25.902;2022-12-18T02:44:56;-2.80;99.90
14985;DHT22;7588;62.368;25.902;2022-12-18T02:47:24;-2.80;99.90
14985;DHT22;7588;62.368;25.902;2022-12-18T02:50:02;-2.80;99.90
14985;DHT22;7588;62.368;25.902;2022-12-18T03:00:23;-2.70;99.90
14985;DHT22;7588;62.368;25.902;2022-12-18T03:05:47;-2.60;99.90
14985;DHT22;7588;62.368;25.902;2022-12-18T03:08:27;-2.60;99.90
14985;DHT22;7588;62.368;25.902;2022-12-18T03:11:01;-2.60;99.90
14985;DHT22;7588;62.368;25.902;2022-12-18T03:13:39;-2.60;99.90
14985;DHT22;7588;62.368;25.902;2022-12-18T03:16:09;-2.60;99.90
14985;DHT22;7588;62.368;25.902;2022-12-18T03:18:45;-2.60;99.90
14985;DHT22;7588;62.368;25.902;2022-12-18T03:21:14;-2.70;99.90
14985;DHT22;7588;62.368;25.902;2022-12-18T03:23:44;-2.60;99.90
14985;DHT22;7588;62.368;25.902;2022-12-18T03:26:15;-2.60;99.90
14985;DHT22;7588;62.368;25.902;2022-12-18T03:29:04;-2.60;99.90
14985;DHT22;7588;62.368;25.902;2022-12-18T03:31:35;-2.60;99.90
14985;DHT22;7588;62.368;25.902;2022-12-18T03:34:13;-2.60;99.90
14985;DHT22;7588;62.368;25.902;2022-12-18T03:36:40;-2.60;99.90
14985;DHT22;7588;62.368;25.902;2022-12-18T03:39:06;-2.60;99.90
14985;DHT22;7588;62.368;25.902;2022-12-18T03:41:45;-2.50;99.90
14985;DHT22;7588;62.368;25.902;2022-12-18T03:46:51;-2.50;99.90
14985;DHT22;7588;62.368;25.902;2022-12-18T03:49:48;-2.50;99.90
14985;DHT22;7588;62.368;25.902;2022-12-18T03:54:55;-2.50;99.90
14985;DHT22;7588;62.368;25.902;2022-12-18T03:57:27;-2.50;99.90
14985;DHT22;7588;62.368;25.902;2022-12-18T04:00:23;-2.60;99.90
14985;DHT22;7588;62.368;25.902;2022-12-18T04:02:52;-2.60;99.90
14985;DHT22;7588;62.368;25.902;2022-12-18T04:05:19;-2.70;99.90
14985;DHT22;7588;62.368;25.902;2022-12-18T04:07:47;-2.60;99.90
14985;DHT22;7588;62.368;25.902;2022-12-18T04:10:15;-2.60;99.90
14985;DHT22;7588;62.368;25.902;2022-12-18T04:12:42;-2.50;99.90
14985;DHT22;7588;62.368;25.902;2022-12-18T04:15:09;-2.50;99.90
14985;DHT22;7588;62.368;25.902;2022-12-18T04:17:34;-2.40;99.90
14985;DHT22;7588;62.368;25.902;2022-12-18T04:20:00;-2.30;99.90
14985;DHT22;7588;62.368;25.902;2022-12-18T04:22:26;-2.40;99.90
14985;DHT22;7588;62.368;25.902;2022-12-18T04:24:52;-2.40;99.90
14985;DHT22;7588;62.368;25.902;2022-12-18T04:27:18;-2.40;99.90
14985;DHT22;7588;62.368;25.902;2022-12-18T04:29:43;-2.40;99.90
14985;DHT22;7588;62.368;25.902;2022-12-18T04:32:09;-2.30;99.90
14985;DHT22;7588;62.368;25.902;2022-12-18T04:34:35;-2.30;99.90
14985;DHT22;7588;62.368;25.902;2022-12-18T04:37:00;-2.30;99.90
14985;DHT22;7588;62.368;25.902;2022-12-18T04:39:26;-2.30;99.90
14985;DHT22;7588;62.368;25.902;2022-12-18T04:41:52;-2.30;99.90
14985;DHT22;7588;62.368;25.902;2022-12-18T04:44:18;-2.30;99.90
14985;DHT22;7588;62.368;25.902;2022-12-18T04:46:43;-2.20;99.90
14985;DHT22;7588;62.368;25.902;2022-12-18T04:49:09;-2.20;99.90
14985;DHT22;7588;62.368;25.902;2022-12-18T04:51:36;-2.20;99.90
14985;DHT22;7588;62.368;25.902;2022-12-18T04:54:02;-2.20;99.90
14985;DHT22;7588;62.368;25.902;2022-12-18T04:56:30;-2.30;99.90
14985;DHT22;7588;62.368;25.902;2022-12-18T04:58:55;-2.20;99.90
14985;DHT22;7588;62.368;25.902;2022-12-18T05:01:21;-2.30;99.90
14985;DHT22;7588;62.368;25.902;2022-12-18T05:03:47;-2.20;99.90
14985;DHT22;7588;62.368;25.902;2022-12-18T05:06:13;-2.20;99.90
14985;DHT22;7588;62.368;25.902;2022-12-18T05:08:39;-2.20;99.90
14985;DHT22;7588;62.368;25.902;2022-12-18T05:11:07;-2.30;99.90
14985;DHT22;7588;62.368;25.902;2022-12-18T05:13:34;-2.20;99.90
14985;DHT22;7588;62.368;25.902;2022-12-18T05:16:00;-2.30;99.90
14985;DHT22;7588;62.368;25.902;2022-12-18T05:18:26;-2.20;99.90
14985;DHT22;7588;62.368;25.902;2022-12-18T05:20:53;-2.10;99.90
14985;DHT22;7588;62.368;25.902;2022-12-18T05:23:19;-2.10;99.90
14985;DHT22;7588;62.368;25.902;2022-12-18T05:28:18;-2.20;99.90
14985;DHT22;7588;62.368;25.902;2022-12-18T05:30:48;-2.20;99.90
14985;DHT22;7588;62.368;25.902;2022-12-18T05:33:15;-2.30;99.90
14985;DHT22;7588;62.368;25.902;2022-12-18T05:35:40;-2.30;99.90
14985;DHT22;7588;62.368;25.902;2022-12-18T05:38:06;-2.20;99.90
14985;DHT22;7588;62.368;25.902;2022-12-18T05:40:32;-2.20;99.90
14985;DHT22;7588;62.368;25.902;2022-12-18T05:42:57;-2.20;99.90
14985;DHT22;7588;62.368;25.902;2022-12-18T05:45:23;-2.20;99.90
14985;DHT22;7588;62.368;25.902;2022-12-18T05:47:49;-2.20;99.90
14985;DHT22;7588;62.368;25.902;2022-12-18T05:50:15;-2.20;99.90
14985;DHT22;7588;62.368;25.902;2022-12-18T05:52:40;-2.30;99.90
14985;DHT22;7588;62.368;25.902;2022-12-18T05:55:06;-2.30;99.90
14985;DHT22;7588;62.368;25.902;2022-12-18T05:57:32;-2.40;99.90
14985;DHT22;7588;62.368;25.902;2022-12-18T05:59:58;-2.40;99.90
14985;DHT22;7588;62.368;25.902;2022-12-18T06:02:24;-2.40;99.90
14985;DHT22;7588;62.368;25.902;2022-12-18T06:04:49;-2.40;99.90
14985;DHT22;7588;62.368;25.902;2022-12-18T06:07:15;-2.50;99.90
14985;DHT22;7588;62.368;25.902;2022-12-18T06:09:41;-2.50;99.90
14985;DHT22;7588;62.368;25.902;2022-12-18T06:12:06;-2.50;99.90
14985;DHT22;7588;62.368;25.902;2022-12-18T06:14:32;-2.50;99.90
14985;DHT22;7588;62.368;25.902;2022-12-18T06:16:58;-2.50;99.90
14985;DHT22;7588;62.368;25.902;2022-12-18T06:19:24;-2.50;99.90
14985;DHT22;7588;62.368;25.902;2022-12-18T06:21:49;-2.50;99.90
14985;DHT22;7588;62.368;25.902;2022-12-18T06:24:16;-2.50;99.90
14985;DHT22;7588;62.368;25.902;2022-12-18T06:26:41;-2.40;99.90
14985;DHT22;7588;62.368;25.902;2022-12-18T06:29:07;-2.40;99.90
14985;DHT22;7588;62.368;25.902;2022-12-18T06:31:33;-2.40;99.90
14985;DHT22;7588;62.368;25.902;2022-12-18T06:33:59;-2.30;99.90
14985;DHT22;7588;62.368;25.902;2022-12-18T06:36:30;-2.30;99.90
14985;DHT22;7588;62.368;25.902;2022-12-18T06:38:56;-2.30;99.90
14985;DHT22;7588;62.368;25.902;2022-12-18T06:41:23;-2.30;99.90
14985;DHT22;7588;62.368;25.902;2022-12-18T06:43:48;-2.30;99.90
14985;DHT22;7588;62.368;25.902;2022-12-18T06:46:14;-2.30;99.90
14985;DHT22;7588;62.368;25.902;2022-12-18T06:48:40;-2.30;99.90
14985;DHT22;7588;62.368;25.902;2022-12-18T06:51:06;-2.20;99.90
14985;DHT22;7588;62.368;25.902;2022-12-18T06:53:32;-2.20;99.90
14985;DHT22;7588;62.368;25.902;2022-12-18T06:58:28;-2.20;99.90
14985;DHT22;7588;62.368;25.902;2022-12-18T07:00:58;-2.20;99.90
14985;DHT22;7588;62.368;25.902;2022-12-18T07:03:24;-2.20;99.90
14985;DHT22;7588;62.368;25.902;2022-12-18T07:05:50;-2.20;99.90
14985;DHT22;7588;62.368;25.902;2022-12-18T07:08:15;-2.20;99.90
14985;DHT22;7588;62.368;25.902;2022-12-18T07:10:42;-2.20;99.90
14985;DHT22;7588;62.368;25.902;2022-12-18T07:13:11;-2.20;99.90
14985;DHT22;7588;62.368;25.902;2022-12-18T07:15:37;-2.20;99.90
14985;DHT22;7588;62.368;25.902;2022-12-18T07:18:03;-2.20;99.90
14985;DHT22;7588;62.368;25.902;2022-12-18T07:20:29;-2.20;99.90
14985;DHT22;7588;62.368;25.902;2022-12-18T07:22:54;-2.10;99.90
14985;DHT22;7588;62.368;25.902;2022-12-18T07:25:21;-2.00;99.90
14985;DHT22;7588;62.368;25.902;2022-12-18T07:27:47;-1.90;99.90
14985;DHT22;7588;62.368;25.902;2022-12-18T07:30:12;-1.80;99.90
14985;DHT22;7588;62.368;25.902;2022-12-18T07:32:38;-1.80;99.90
14985;DHT22;7588;62.368;25.902;2022-12-18T07:35:04;-1.80;99.90
14985;DHT22;7588;62.368;25.902;2022-12-18T07:37:30;-1.60;99.90
14985;DHT22;7588;62.368;25.902;2022-12-18T07:39:56;-1.60;99.90
14985;DHT22;7588;62.368;25.902;2022-12-18T07:42:22;-1.60;99.90
14985;DHT22;7588;62.368;25.902;2022-12-18T07:44:58;-1.50;99.90
14985;DHT22;7588;62.368;25.902;2022-12-18T07:47:23;-1.50;99.90
14985;DHT22;7588;62.368;25.902;2022-12-18T07:49:49;-1.50;99.90
14985;DHT22;7588;62.368;25.902;2022-12-18T07:52:15;-1.40;99.90
14985;DHT22;7588;62.368;25.902;2022-12-18T07:54:41;-1.40;99.90
14985;DHT22;7588;62.368;25.902;2022-12-18T07:57:07;-1.50;99.90
14985;DHT22;7588;62.368;25.902;2022-12-18T07:59:34;-1.40;99.90
14985;DHT22;7588;62.368;25.902;2022-12-18T08:02:00;-1.30;99.90
14985;DHT22;7588;62.368;25.902;2022-12-18T08:04:25;-1.30;99.90
14985;DHT22;7588;62.368;25.902;2022-12-18T08:06:51;-1.30;99.90
14985;DHT22;7588;62.368;25.902;2022-12-18T08:09:17;-1.20;99.90
14985;DHT22;7588;62.368;25.902;2022-12-18T08:11:43;-1.20;99.90
14985;DHT22;7588;62.368;25.902;2022-12-18T08:14:09;-1.20;99.90
14985;DHT22;7588;62.368;25.902;2022-12-18T08:16:35;-1.10;99.90
14985;DHT22;7588;62.368;25.902;2022-12-18T08:19:02;-1.10;99.90
14985;DHT22;7588;62.368;25.902;2022-12-18T08:21:29;-1.10;99.90
14985;DHT22;7588;62.368;25.902;2022-12-18T08:23:57;-1.10;99.90
14985;DHT22;7588;62.368;25.902;2022-12-18T08:26:25;-1.00;99.90
14985;DHT22;7588;62.368;25.902;2022-12-18T08:28:51;-1.10;99.90
14985;DHT22;7588;62.368;25.902;2022-12-18T08:31:18;-1.10;99.90
14985;DHT22;7588;62.368;25.902;2022-12-18T08:33:44;-1.00;99.90
14985;DHT22;7588;62.368;25.902;2022-12-18T08:36:10;-1.00;99.90
14985;DHT22;7588;62.368;25.902;2022-12-18T08:38:36;-0.90;99.90
14985;DHT22;7588;62.368;25.902;2022-12-18T08:41:07;-0.90;99.90
14985;DHT22;7588;62.368;25.902;2022-12-18T08:43:34;-0.90;99.90
14985;DHT22;7588;62.368;25.902;2022-12-18T08:46:20;-0.90;99.90
14985;DHT22;7588;62.368;25.902;2022-12-18T08:48:46;-0.80;99.90
14985;DHT22;7588;62.368;25.902;2022-12-18T08:51:13;-0.80;99.90
14985;DHT22;7588;62.368;25.902;2022-12-18T08:53:40;-0.70;99.90
14985;DHT22;7588;62.368;25.902;2022-12-18T08:56:07;-0.70;99.90
14985;DHT22;7588;62.368;25.902;2022-12-18T08:58:32;-0.70;99.90
14985;DHT22;7588;62.368;25.902;2022-12-18T09:01:09;-0.70;99.90
14985;DHT22;7588;62.368;25.902;2022-12-18T09:03:35;-0.60;99.90
14985;DHT22;7588;62.368;25.902;2022-12-18T09:06:01;-0.60;99.90
14985;DHT22;7588;62.368;25.902;2022-12-18T09:08:27;-0.60;99.90
14985;DHT22;7588;62.368;25.902;2022-12-18T09:10:53;-0.50;99.90
14985;DHT22;7588;62.368;25.902;2022-12-18T09:13:19;-0.40;99.90
14985;DHT22;7588;62.368;25.902;2022-12-18T09:15:48;-0.50;99.90
14985;DHT22;7588;62.368;25.902;2022-12-18T09:18:16;-0.40;99.90
14985;DHT22;7588;62.368;25.902;2022-12-18T09:20:42;-0.40;99.90
14985;DHT22;7588;62.368;25.902;2022-12-18T09:23:08;-0.30;99.90
14985;DHT22;7588;62.368;25.902;2022-12-18T09:25:35;-0.30;99.90
14985;DHT22;7588;62.368;25.902;2022-12-18T09:28:06;-0.20;99.90
14985;DHT22;7588;62.368;25.902;2022-12-18T09:30:44;-0.20;99.90
14985;DHT22;7588;62.368;25.902;2022-12-18T09:33:10;-0.20;99.90
14985;DHT22;7588;62.368;25.902;2022-12-18T09:35:39;-0.10;99.90
14985;DHT22;7588;62.368;25.902;2022-12-18T09:38:05;-0.10;99.90
14985;DHT22;7588;62.368;25.902;2022-12-18T09:40:39;-0.10;99.90
14985;DHT22;7588;62.368;25.902;2022-12-18T09:43:07;-0.10;99.90
14985;DHT22;7588;62.368;25.902;2022-12-18T09:45:42;0.00;99.90
14985;DHT22;7588;62.368;25.902;2022-12-18T09:48:30;0.00;99.90
14985;DHT22;7588;62.368;25.902;2022-12-18T09:51:23;0.00;99.90
14985;DHT22;7588;62.368;25.902;2022-12-18T09:53:59;0.00;99.90
14985;DHT22;7588;62.368;25.902;2022-12-18T09:56:29;0.00;99.90
14985;DHT22;7588;62.368;25.902;2022-12-18T09:59:02;0.10;99.90
14985;DHT22;7588;62.368;25.902;2022-12-18T10:01:29;0.10;99.90
14985;DHT22;7588;62.368;25.902;2022-12-18T10:03:56;0.10;99.90
14985;DHT22;7588;62.368;25.902;2022-12-18T10:06:42;0.10;99.90
14985;DHT22;7588;62.368;25.902;2022-12-18T10:12:26;0.20;99.90
14985;DHT22;7588;62.368;25.902;2022-12-18T10:15:07;0.20;99.90
14985;DHT22;7588;62.368;25.902;2022-12-18T10:20:27;0.20;99.90
14985;DHT22;7588;62.368;25.902;2022-12-18T10:26:04;0.20;99.90
14985;DHT22;7588;62.368;25.902;2022-12-18T10:28:32;0.30;99.90
14985;DHT22;7588;62.368;25.902;2022-12-18T10:30:58;0.20;99.90
14985;DHT22;7588;62.368;25.902;2022-12-18T10:33:28;0.20;99.90
14985;DHT22;7588;62.368;25.902;2022-12-18T10:35:55;0.20;99.90
14985;DHT22;7588;62.368;25.902;2022-12-18T10:38:24;0.20;99.90
14985;DHT22;7588;62.368;25.902;2022-12-18T10:43:29;0.30;99.90
14985;DHT22;7588;62.368;25.902;2022-12-18T10:48:35;0.30;99.90
14985;DHT22;7588;62.368;25.902;2022-12-18T10:51:02;0.30;99.90
14985;DHT22;7588;62.368;25.902;2022-12-18T10:53:31;0.30;99.90
14985;DHT22;7588;62.368;25.902;2022-12-18T10:56:02;0.40;99.90
14985;DHT22;7588;62.368;25.902;2022-12-18T11:01:13;0.30;99.90
14985;DHT22;7588;62.368;25.902;2022-12-18T11:03:43;0.30;99.90
14985;DHT22;7588;62.368;25.902;2022-12-18T11:06:17;0.30;99.90
14985;DHT22;7588;62.368;25.902;2022-12-18T11:08:56;0.30;99.90
14985;DHT22;7588;62.368;25.902;2022-12-18T11:11:24;0.30;99.90
14985;DHT22;7588;62.368;25.902;2022-12-18T11:14:12;0.30;99.90
14985;DHT22;7588;62.368;25.902;2022-12-18T11:16:47;0.30;99.90
14985;DHT22;7588;62.368;25.902;2022-12-18T11:19:35;0.30;99.90
14985;DHT22;7588;62.368;25.902;2022-12-18T11:22:17;0.20;99.90
14985;DHT22;7588;62.368;25.902;2022-12-18T11:27:28;0.20;99.90
14985;DHT22;7588;62.368;25.902;2022-12-18T11:32:42;0.20;99.90
14985;DHT22;7588;62.368;25.902;2022-12-18T11:35:20;0.20;99.90
14985;DHT22;7588;62.368;25.902;2022-12-18T11:37:54;0.20;99.90
14985;DHT22;7588;62.368;25.902;2022-12-18T11:40:30;0.20;99.90
14985;DHT22;7588;62.368;25.902;2022-12-18T11:43:06;0.20;99.90
14985;DHT22;7588;62.368;25.902;2022-12-18T11:45:35;0.20;99.90
14985;DHT22;7588;62.368;25.902;2022-12-18T11:48:14;0.20;99.90
14985;DHT22;7588;62.368;25.902;2022-12-18T11:50:47;0.20;99.90
14985;DHT22;7588;62.368;25.902;2022-12-18T11:53:14;0.20;99.90
14985;DHT22;7588;62.368;25.902;2022-12-18T12:04:24;0.20;99.90
14985;DHT22;7588;62.368;25.902;2022-12-18T12:12:46;0.20;99.90
14985;DHT22;7588;62.368;25.902;2022-12-18T12:23:12;0.10;99.90
14985;DHT22;7588;62.368;25.902;2022-12-18T12:39:07;0.10;99.90
14985;DHT22;7588;62.368;25.902;2022-12-18T12:41:35;0.10;99.90
14985;DHT22;7588;62.368;25.902;2022-12-18T12:44:25;0.00;99.90
14985;DHT22;7588;62.368;25.902;2022-12-18T12:46:57;0.10;99.90
14985;DHT22;7588;62.368;25.902;2022-12-18T12:49:27;0.00;99.90
14985;DHT22;7588;62.368;25.902;2022-12-18T12:52:06;0.00;99.90
14985;DHT22;7588;62.368;25.902;2022-12-18T12:54:33;0.10;99.90
14985;DHT22;7588;62.368;25.902;2022-12-18T12:57:10;0.00;99.90
14985;DHT22;7588;62.368;25.902;2022-12-18T13:08:07;0.00;99.90
14985;DHT22;7588;62.368;25.902;2022-12-18T13:10:34;0.00;99.90
14985;DHT22;7588;62.368;25.902;2022-12-18T13:18:23;-0.10;99.90
14985;DHT22;7588;62.368;25.902;2022-12-18T13:34:19;-0.20;99.90
14985;DHT22;7588;62.368;25.902;2022-12-18T13:36:46;-0.20;99.90
14985;DHT22;7588;62.368;25.902;2022-12-18T13:44:40;-0.20;99.90
14985;DHT22;7588;62.368;25.902;2022-12-18T13:47:36;-0.30;99.90
14985;DHT22;7588;62.368;25.902;2022-12-18T13:50:25;-0.30;99.90
14985;DHT22;7588;62.368;25.902;2022-12-18T13:52:52;-0.20;99.90
14985;DHT22;7588;62.368;25.902;2022-12-18T13:55:20;-0.30;99.90
14985;DHT22;7588;62.368;25.902;2022-12-18T13:57:46;-0.30;99.90
14985;DHT22;7588;62.368;25.902;2022-12-18T14:00:31;-0.30;99.90
14985;DHT22;7588;62.368;25.902;2022-12-18T14:02:58;-0.20;99.90
14985;DHT22;7588;62.368;25.902;2022-12-18T14:05:29;-0.20;99.90
14985;DHT22;7588;62.368;25.902;2022-12-18T14:08:01;-0.20;99.90
14985;DHT22;7588;62.368;25.902;2022-12-18T14:10:27;-0.30;99.90
14985;DHT22;7588;62.368;25.902;2022-12-18T14:12:54;-0.30;99.90
14985;DHT22;7588;62.368;25.902;2022-12-18T14:15:41;-0.30;99.90
14985;DHT22;7588;62.368;25.902;2022-12-18T14:19:11;-0.30;99.90
14985;DHT22;7588;62.368;25.902;2022-12-18T14:21:28;-0.20;99.90
14985;DHT22;7588;62.368;25.902;2022-12-18T14:24:17;-0.20;99.90
14985;DHT22;7588;62.368;25.902;2022-12-18T14:26:44;-0.20;99.90
14985;DHT22;7588;62.368;25.902;2022-12-18T14:29:29;-0.20;99.90
14985;DHT22;7588;62.368;25.902;2022-12-18T14:34:36;-0.20;99.90
14985;DHT22;7588;62.368;25.902;2022-12-18T14:37:03;-0.20;99.90
14985;DHT22;7588;62.368;25.902;2022-12-18T14:39:29;-0.20;99.90
14985;DHT22;7588;62.368;25.902;2022-12-18T14:41:57;-0.20;99.90
14985;DHT22;7588;62.368;25.902;2022-12-18T14:44:23;-0.10;99.90
14985;DHT22;7588;62.368;25.902;2022-12-18T14:46:50;-0.20;99.90
14985;DHT22;7588;62.368;25.902;2022-12-18T14:49:34;-0.10;99.90
14985;DHT22;7588;62.368;25.902;2022-12-18T14:52:05;-0.10;99.90
14985;DHT22;7588;62.368;25.902;2022-12-18T14:54:32;-0.20;99.90
14985;DHT22;7588;62.368;25.902;2022-12-18T14:57:23;-0.10;99.90
14985;DHT22;7588;62.368;25.902;2022-12-18T14:59:50;-0.10;99.90
14985;DHT22;7588;62.368;25.902;2022-12-18T15:02:26;-0.10;99.90
14985;DHT22;7588;62.368;25.902;2022-12-18T15:05:17;-0.10;99.90
14985;DHT22;7588;62.368;25.902;2022-12-18T15:07:48;-0.10;99.90
14985;DHT22;7588;62.368;25.902;2022-12-18T15:23:21;-0.10;99.90
14985;DHT22;7588;62.368;25.902;2022-12-18T15:25:54;-0.10;99.90
14985;DHT22;7588;62.368;25.902;2022-12-18T15:28:36;-0.10;99.90
14985;DHT22;7588;62.368;25.902;2022-12-18T15:31:04;0.00;99.90
14985;DHT22;7588;62.368;25.902;2022-12-18T15:33:36;0.00;99.90
14985;DHT22;7588;62.368;25.902;2022-12-18T15:36:05;-0.10;99.90
14985;DHT22;7588;62.368;25.902;2022-12-18T15:38:33;0.00;99.90
14985;DHT22;7588;62.368;25.902;2022-12-18T15:40:59;0.00;99.90
14985;DHT22;7588;62.368;25.902;2022-12-18T15:43:25;0.00;99.90
14985;DHT22;7588;62.368;25.902;2022-12-18T15:46:06;0.10;99.90
14985;DHT22;7588;62.368;25.902;2022-12-18T15:48:41;0.10;99.90
14985;DHT22;7588;62.368;25.902;2022-12-18T15:51:20;0.00;99.90
14985;DHT22;7588;62.368;25.902;2022-12-18T15:53:51;0.10;99.90
14985;DHT22;7588;62.368;25.902;2022-12-18T15:56:18;0.10;99.90
14985;DHT22;7588;62.368;25.902;2022-12-18T15:59:04;0.10;99.90
14985;DHT22;7588;62.368;25.902;2022-12-18T16:01:30;0.00;99.90
14985;DHT22;7588;62.368;25.902;2022-12-18T16:03:59;0.10;99.90
14985;DHT22;7588;62.368;25.902;2022-12-18T16:06:24;0.10;99.90
14985;DHT22;7588;62.368;25.902;2022-12-18T16:08:50;0.10;99.90
14985;DHT22;7588;62.368;25.902;2022-12-18T16:11:25;0.10;99.90
14985;DHT22;7588;62.368;25.902;2022-12-18T16:14:05;0.10;99.90
14985;DHT22;7588;62.368;25.902;2022-12-18T16:16:31;0.10;99.90
14985;DHT22;7588;62.368;25.902;2022-12-18T16:18:57;0.10;99.90
14985;DHT22;7588;62.368;25.902;2022-12-18T16:21:23;0.10;99.90
14985;DHT22;7588;62.368;25.902;2022-12-18T16:23:48;0.20;99.90
14985;DHT22;7588;62.368;25.902;2022-12-18T16:26:14;0.10;99.90
14985;DHT22;7588;62.368;25.902;2022-12-18T16:28:40;0.20;99.90
14985;DHT22;7588;62.368;25.902;2022-12-18T16:31:05;0.20;99.90
14985;DHT22;7588;62.368;25.902;2022-12-18T16:33:31;0.20;99.90
14985;DHT22;7588;62.368;25.902;2022-12-18T16:35:57;0.20;99.90
14985;DHT22;7588;62.368;25.902;2022-12-18T16:38:22;0.20;99.90
14985;DHT22;7588;62.368;25.902;2022-12-18T16:40:48;0.20;99.90
14985;DHT22;7588;62.368;25.902;2022-12-18T16:43:32;0.20;99.90
14985;DHT22;7588;62.368;25.902;2022-12-18T16:45:58;0.20;99.90
14985;DHT22;7588;62.368;25.902;2022-12-18T16:48:24;0.20;99.90
14985;DHT22;7588;62.368;25.902;2022-12-18T16:50:51;0.30;99.90
14985;DHT22;7588;62.368;25.902;2022-12-18T16:53:24;0.30;99.90
14985;DHT22;7588;62.368;25.902;2022-12-18T16:55:54;0.30;99.90
14985;DHT22;7588;62.368;25.902;2022-12-18T16:58:20;0.30;99.90
14985;DHT22;7588;62.368;25.902;2022-12-18T17:00:46;0.20;99.90
14985;DHT22;7588;62.368;25.902;2022-12-18T17:03:11;0.30;99.90
14985;DHT22;7588;62.368;25.902;2022-12-18T17:05:37;0.30;99.90
14985;DHT22;7588;62.368;25.902;2022-12-18T17:08:03;0.30;99.90
14985;DHT22;7588;62.368;25.902;2022-12-18T17:10:30;0.30;99.90
14985;DHT22;7588;62.368;25.902;2022-12-18T17:12:56;0.30;99.90
14985;DHT22;7588;62.368;25.902;2022-12-18T17:15:22;0.30;99.90
14985;DHT22;7588;62.368;25.902;2022-12-18T17:17:48;0.30;99.90
14985;DHT22;7588;62.368;25.902;2022-12-18T17:20:14;0.30;99.90
14985;DHT22;7588;62.368;25.902;2022-12-18T17:22:40;0.20;99.90
14985;DHT22;7588;62.368;25.902;2022-12-18T17:25:06;0.20;99.90
14985;DHT22;7588;62.368;25.902;2022-12-18T17:27:32;0.20;99.90
14985;DHT22;7588;62.368;25.902;2022-12-18T17:29:57;0.20;99.90
14985;DHT22;7588;62.368;25.902;2022-12-18T17:32:23;0.20;99.90
14985;DHT22;7588;62.368;25.902;2022-12-18T17:34:49;0.30;99.90
14985;DHT22;7588;62.368;25.902;2022-12-18T17:37:14;0.30;99.90
14985;DHT22;7588;62.368;25.902;2022-12-18T17:39:40;0.30;99.90
14985;DHT22;7588;62.368;25.902;2022-12-18T17:42:06;0.40;99.90
14985;DHT22;7588;62.368;25.902;2022-12-18T17:44:36;0.30;99.90
14985;DHT22;7588;62.368;25.902;2022-12-18T17:47:02;0.40;99.90
14985;DHT22;7588;62.368;25.902;2022-12-18T17:49:28;0.40;99.90
14985;DHT22;7588;62.368;25.902;2022-12-18T17:51:53;0.40;99.90
14985;DHT22;7588;62.368;25.902;2022-12-18T17:54:19;0.40;99.90
14985;DHT22;7588;62.368;25.902;2022-12-18T17:56:45;0.40;99.90
14985;DHT22;7588;62.368;25.902;2022-12-18T17:59:12;0.40;99.90
14985;DHT22;7588;62.368;25.902;2022-12-18T18:01:38;0.40;99.90
14985;DHT22;7588;62.368;25.902;2022-12-18T18:04:04;0.40;99.90
14985;DHT22;7588;62.368;25.902;2022-12-18T18:06:31;0.40;99.90
14985;DHT22;7588;62.368;25.902;2022-12-18T18:08:57;0.40;99.90
14985;DHT22;7588;62.368;25.902;2022-12-18T18:11:23;0.40;99.90
14985;DHT22;7588;62.368;25.902;2022-12-18T18:14:17;0.40;99.90
14985;DHT22;7588;62.368;25.902;2022-12-18T18:16:48;0.40;99.90